Time;durP1;ratioP1;P1;durP2;ratioP2;P2;SDS_P1;SDS_P2;PMS_P1;PMS_P2;Temp;Humidity;BMP_temperature;BMP_pressure;BME280_temperature;BME280_humidity;BME280_pressure;Samples;Min_cycle;Max_cycle;Signal;HPM_P1;HPM_P2
2022/06/01 00:00:54;;;;;;;14.50;10.88;;;26.80;99.90;;;;;;1842718;77;21174;-79
2022/06/01 00:03:31;;;;;;;13.72;11.18;;;27.10;99.90;;;;;;1827839;77;21690;-77
2022/06/01 00:06:06;;;;;;;15.13;10.60;;;27.10;99.90;;;;;;1818952;79;21645;-76
2022/06/01 00:08:38;;;;;;;12.33;9.88;;;27.10;99.90;;;;;;1828146;77;21138;-80
2022/06/01 00:11:09;;;;;;;12.10;10.60;;;27.20;99.90;;;;;;1850075;76;21144;-77
2022/06/01 00:13:42;;;;;;;11.63;8.45;;;27.10;99.90;;;;;;1849127;77;21134;-78
2022/06/01 00:16:21;;;;;;;13.53;8.95;;;27.00;99.90;;;;;;1840843;77;21130;-78
2022/06/01 00:18:51;;;;;;;14.25;9.85;;;27.10;99.90;;;;;;1837576;78;21550;-77
2022/06/01 00:21:22;;;;;;;11.85;8.48;;;27.00;99.90;;;;;;1834792;77;21170;-77
2022/06/01 00:23:54;;;;;;;11.55;9.08;;;27.00;99.90;;;;;;1832178;77;21563;-76
2022/06/01 00:26:25;;;;;;;11.95;8.95;;;27.20;99.90;;;;;;1855238;76;21072;-80
2022/06/01 00:28:56;;;;;;;13.43;8.10;;;27.20;99.90;;;;;;1852882;76;21182;-78
2022/06/01 00:31:27;;;;;;;13.28;8.73;;;27.10;99.90;;;;;;1852196;77;21154;-77
2022/06/01 00:33:58;;;;;;;14.28;9.08;;;27.20;99.90;;;;;;1853370;77;21165;-78
2022/06/01 00:36:29;;;;;;;16.57;9.63;;;27.40;99.90;;;;;;1853983;77;21185;-77
2022/06/01 00:39:00;;;;;;;13.88;8.73;;;27.30;99.90;;;;;;1839602;77;21456;-78
2022/06/01 00:41:31;;;;;;;13.15;8.70;;;27.50;99.90;;;;;;1837087;76;21212;-79
2022/06/01 00:44:03;;;;;;;11.80;9.20;;;27.50;99.90;;;;;;1846777;77;21137;-79
2022/06/01 00:46:34;;;;;;;13.53;8.23;;;27.50;99.90;;;;;;1831941;77;21118;-77
2022/06/01 00:49:07;;;;;;;12.45;9.63;;;27.50;99.90;;;;;;1823148;79;21153;-76
2022/06/01 00:51:39;;;;;;;12.80;8.08;;;27.70;99.90;;;;;;1848312;77;21173;-76
2022/06/01 00:54:11;;;;;;;10.43;8.50;;;27.60;99.90;;;;;;1828547;77;22094;-75
2022/06/01 00:56:57;;;;;;;13.88;8.63;;;27.70;99.90;;;;;;1817170;77;21285;-84
2022/06/01 00:59:40;;;;;;;11.77;8.77;;;27.70;99.90;;;;;;1770204;79;21292;-85
2022/06/01 01:02:12;;;;;;;14.28;8.65;;;27.70;99.90;;;;;;1793563;76;21230;-84
2022/06/01 01:04:44;;;;;;;14.38;10.10;;;27.70;99.90;;;;;;1798930;79;21222;-86
2022/06/01 01:07:16;;;;;;;17.55;9.33;;;27.90;99.90;;;;;;1806115;79;21118;-88
2022/06/01 01:09:47;;;;;;;13.15;9.60;;;27.90;99.90;;;;;;1770224;80;21241;-86
2022/06/01 01:12:18;;;;;;;18.73;10.53;;;28.00;99.90;;;;;;1746476;81;21347;-83
2022/06/01 01:14:52;;;;;;;14.33;9.43;;;28.10;99.90;;;;;;1738138;82;21149;-87
2022/06/01 01:17:42;;;;;;;13.98;9.73;;;28.00;99.90;;;;;;1742438;82;21139;-85
2022/06/01 01:20:16;;;;;;;14.47;9.50;;;28.20;99.90;;;;;;1727682;81;21176;-86
2022/06/01 01:22:55;;;;;;;14.95;10.23;;;28.20;99.90;;;;;;1737878;82;21231;-85
2022/06/01 01:25:28;;;;;;;19.67;9.68;;;28.30;99.90;;;;;;1784965;79;21283;-87
2022/06/01 01:28:05;;;;;;;14.73;9.25;;;28.30;99.90;;;;;;1775167;80;21294;-86
2022/06/01 01:30:38;;;;;;;15.68;10.15;;;28.40;99.90;;;;;;1734357;80;21260;-87
2022/06/01 01:33:12;;;;;;;13.08;9.43;;;28.50;99.90;;;;;;1755712;80;21271;-87
2022/06/01 01:35:53;;;;;;;14.68;10.15;;;28.60;99.90;;;;;;1753906;80;21280;-85
2022/06/01 01:38:26;;;;;;;15.98;9.78;;;28.70;99.90;;;;;;1762229;79;21245;-86
2022/06/01 01:41:01;;;;;;;13.58;10.35;;;28.60;99.90;;;;;;1764572;80;21217;-86
2022/06/01 01:43:35;;;;;;;16.37;10.55;;;28.70;99.90;;;;;;1746258;80;21188;-86
2022/06/01 01:46:07;;;;;;;13.78;9.88;;;28.90;99.90;;;;;;1745769;80;21241;-85
2022/06/01 01:48:38;;;;;;;14.73;10.55;;;29.00;99.90;;;;;;1763899;80;21225;-86
2022/06/01 01:51:09;;;;;;;16.73;11.10;;;28.90;99.90;;;;;;1737624;81;21256;-85
2022/06/01 01:53:41;;;;;;;16.32;10.28;;;29.10;99.90;;;;;;1756140;80;21804;-85
2022/06/01 01:56:15;;;;;;;15.03;10.15;;;29.00;99.90;;;;;;1793600;78;21216;-86
2022/06/01 01:58:49;;;;;;;14.95;9.65;;;29.30;99.90;;;;;;1819385;78;21125;-86
2022/06/01 02:01:23;;;;;;;15.75;10.20;;;29.40;99.90;;;;;;1782771;79;21148;-87
2022/06/01 02:03:57;;;;;;;16.85;10.63;;;29.10;99.90;;;;;;1822093;77;21216;-86
2022/06/01 02:06:30;;;;;;;15.23;10.95;;;29.40;99.90;;;;;;1833421;77;21091;-88
2022/06/01 02:09:03;;;;;;;15.68;10.03;;;29.50;99.90;;;;;;1858543;77;21181;-88
2022/06/01 02:14:11;;;;;;;15.50;10.15;;;29.70;99.90;;;;;;1860959;76;21156;-85
2022/06/01 02:16:45;;;;;;;14.38;10.10;;;29.50;99.90;;;;;;1832198;78;21143;-86
2022/06/01 02:19:18;;;;;;;16.48;10.18;;;29.70;99.90;;;;;;1834013;78;21154;-88
2022/06/01 02:21:49;;;;;;;15.40;10.35;;;29.50;99.90;;;;;;1834650;78;21160;-89
2022/06/01 02:24:20;;;;;;;16.20;10.40;;;29.70;99.90;;;;;;1834450;78;21206;-90
2022/06/01 02:26:52;;;;;;;15.90;10.20;;;29.80;99.90;;;;;;1834398;78;21236;-86
2022/06/01 02:29:25;;;;;;;14.05;10.43;;;30.10;99.90;;;;;;1834687;77;21159;-88
2022/06/01 02:31:58;;;;;;;16.57;11.12;;;29.90;99.90;;;;;;1814173;78;21257;-88
2022/06/01 02:34:30;;;;;;;17.55;11.00;;;29.90;99.90;;;;;;1834195;78;21131;-86
2022/06/01 02:37:05;;;;;;;18.20;11.15;;;30.30;99.90;;;;;;1833464;78;21209;-83
2022/06/01 02:39:37;;;;;;;18.80;10.05;;;30.10;99.90;;;;;;1824048;78;21232;-85
2022/06/01 02:44:42;;;;;;;16.30;10.08;;;30.30;99.90;;;;;;1838860;76;21121;-86
2022/06/01 02:47:14;;;;;;;15.75;10.48;;;30.60;99.90;;;;;;1834775;77;21064;-87
2022/06/01 02:49:47;;;;;;;15.25;10.03;;;30.50;99.90;;;;;;1834754;77;21139;-86
2022/06/01 02:52:18;;;;;;;15.38;9.08;;;30.50;99.90;;;;;;1835367;78;21086;-86
2022/06/01 02:54:50;;;;;;;14.93;9.28;;;30.80;99.90;;;;;;1827526;76;21209;-84
2022/06/01 02:57:21;;;;;;;17.60;9.80;;;30.70;99.90;;;;;;1822726;78;21147;-84
2022/06/01 02:59:53;;;;;;;17.50;9.83;;;31.10;99.90;;;;;;1825714;78;21096;-85
2022/06/01 03:02:26;;;;;;;18.17;10.20;;;30.80;99.90;;;;;;1816056;78;21166;-86
2022/06/01 03:04:59;;;;;;;15.65;10.90;;;30.90;99.90;;;;;;1800778;78;21149;-86
2022/06/01 03:07:32;;;;;;;18.40;10.13;;;31.00;99.90;;;;;;1819419;78;21253;-83
2022/06/01 03:10:03;;;;;;;14.95;9.78;;;31.00;99.90;;;;;;1819548;78;21195;-84
2022/06/01 03:12:34;;;;;;;16.52;9.75;;;31.00;99.90;;;;;;1820287;78;21080;-85
2022/06/01 03:15:08;;;;;;;15.53;9.55;;;30.90;99.90;;;;;;1846333;77;21135;-85
2022/06/01 03:17:39;;;;;;;16.65;9.58;;;31.00;99.90;;;;;;1819829;78;21214;-84
2022/06/01 03:20:11;;;;;;;14.65;9.10;;;31.10;99.90;;;;;;1821246;78;21131;-83
2022/06/01 03:22:43;;;;;;;16.77;9.68;;;31.10;99.90;;;;;;1819015;77;21120;-85
2022/06/01 03:25:17;;;;;;;19.80;9.85;;;31.20;99.90;;;;;;1816405;78;21241;-84
2022/06/01 03:28:00;;;;;;;13.48;9.10;;;31.50;99.90;;;;;;1810840;78;21172;-85
2022/06/01 03:30:32;;;;;;;16.07;8.68;;;31.30;99.90;;;;;;1808956;79;21146;-87
2022/06/01 03:33:05;;;;;;;17.95;9.05;;;31.30;99.90;;;;;;1846307;76;21113;-87
2022/06/01 03:35:37;;;;;;;15.38;9.00;;;31.40;99.90;;;;;;1845182;77;21135;-87
2022/06/01 03:38:12;;;;;;;16.85;9.23;;;31.40;99.90;;;;;;1841955;77;21083;-86
2022/06/01 03:40:45;;;;;;;21.90;11.00;;;31.30;99.90;;;;;;1799200;79;21147;-86
2022/06/01 03:43:19;;;;;;;19.90;9.83;;;31.50;99.90;;;;;;1825412;78;21116;-85
2022/06/01 03:45:58;;;;;;;15.70;9.23;;;31.50;99.90;;;;;;1819283;78;21594;-88
2022/06/01 03:48:29;;;;;;;16.12;8.28;;;31.90;99.90;;;;;;1821766;77;21100;-85
2022/06/01 03:51:01;;;;;;;12.33;8.85;;;31.60;99.90;;;;;;1825667;78;21186;-88
2022/06/01 03:53:48;;;;;;;13.85;8.95;;;31.70;99.90;;;;;;1819165;78;21276;-85
2022/06/01 03:56:43;;;;;;;17.42;9.05;;;31.50;99.90;;;;;;1828177;78;21094;-84
2022/06/01 03:59:32;;;;;;;12.03;7.97;;;31.50;99.90;;;;;;1813818;79;21191;-87
2022/06/01 04:02:05;;;;;;;15.20;8.65;;;31.70;99.90;;;;;;1814102;78;21120;-87
2022/06/01 04:04:37;;;;;;;14.03;8.35;;;31.60;99.90;;;;;;1841173;78;21150;-88
2022/06/01 04:07:08;;;;;;;14.43;8.75;;;31.40;99.90;;;;;;1864561;76;21250;-89
2022/06/01 04:09:39;;;;;;;17.73;8.78;;;31.90;99.90;;;;;;1866018;76;21157;-87
2022/06/01 04:12:11;;;;;;;14.55;8.18;;;31.60;99.90;;;;;;1834773;77;21158;-89
2022/06/01 04:14:42;;;;;;;16.23;9.00;;;31.80;99.90;;;;;;1836092;78;21205;-89
2022/06/01 04:17:14;;;;;;;13.28;8.90;;;32.10;99.90;;;;;;1838214;78;21162;-89
2022/06/01 04:19:45;;;;;;;13.45;7.90;;;31.90;99.90;;;;;;1834729;78;21150;-89
2022/06/01 04:22:17;;;;;;;17.60;8.68;;;32.10;99.90;;;;;;1830084;78;21782;-88
2022/06/01 04:24:49;;;;;;;17.20;8.00;;;32.10;99.90;;;;;;1856620;77;21162;-88
2022/06/01 04:27:20;;;;;;;13.55;8.23;;;32.10;99.90;;;;;;1845614;77;21276;-89
2022/06/01 04:29:51;;;;;;;15.30;7.67;;;32.50;99.90;;;;;;1848950;77;21248;-88
2022/06/01 04:32:25;;;;;;;16.42;8.40;;;32.30;99.90;;;;;;1850639;77;21201;-88
2022/06/01 04:34:56;;;;;;;11.50;7.30;;;32.50;99.90;;;;;;1846591;77;21236;-89
2022/06/01 04:37:27;;;;;;;16.52;8.80;;;32.60;99.90;;;;;;1867654;77;21127;-88
2022/06/01 04:39:58;;;;;;;16.25;7.92;;;32.70;99.90;;;;;;1860590;77;21127;-91
2022/06/01 04:42:28;;;;;;;13.58;8.10;;;32.70;99.90;;;;;;1852936;77;21209;-87
2022/06/01 04:45:00;;;;;;;14.73;8.28;;;32.40;99.90;;;;;;1858340;77;21121;-89
2022/06/01 04:47:31;;;;;;;17.00;7.97;;;32.30;99.90;;;;;;1863288;77;21632;-89
2022/06/01 04:50:02;;;;;;;14.68;7.80;;;32.50;99.90;;;;;;1869714;77;21101;-86
2022/06/01 04:52:33;;;;;;;13.13;7.22;;;32.50;99.90;;;;;;1852305;77;21058;-88
2022/06/01 04:55:07;;;;;;;14.00;7.65;;;32.60;99.90;;;;;;1853281;77;21083;-90
2022/06/01 04:57:39;;;;;;;11.63;6.45;;;32.90;99.90;;;;;;1859344;76;21142;-87
2022/06/01 05:00:12;;;;;;;15.35;8.13;;;32.70;99.90;;;;;;1856338;76;21204;-90
2022/06/01 05:02:42;;;;;;;14.43;7.40;;;32.90;99.90;;;;;;1841277;77;21119;-84
2022/06/01 05:05:13;;;;;;;13.00;7.28;;;32.90;99.90;;;;;;1854580;77;21195;-88
2022/06/01 05:07:44;;;;;;;13.32;6.45;;;32.80;99.90;;;;;;1854567;77;21094;-86
2022/06/01 05:10:17;;;;;;;15.95;6.95;;;32.80;99.90;;;;;;1864654;76;21103;-85
2022/06/01 05:12:49;;;;;;;13.85;7.60;;;32.90;99.90;;;;;;1852723;77;21185;-83
2022/06/01 05:15:20;;;;;;;14.65;6.90;;;32.90;99.90;;;;;;1855456;77;21136;-87
2022/06/01 05:17:55;;;;;;;15.60;7.78;;;32.90;99.90;;;;;;1855565;77;21171;-89
2022/06/01 05:20:26;;;;;;;19.70;6.65;;;32.90;99.90;;;;;;1854689;76;21197;-84
2022/06/01 05:22:56;;;;;;;12.10;6.40;;;32.90;99.90;;;;;;1858237;76;21224;-88
2022/06/01 05:25:27;;;;;;;18.62;7.90;;;33.00;99.90;;;;;;1876047;75;21156;-89
2022/06/01 05:27:59;;;;;;;14.68;7.08;;;32.80;99.90;;;;;;1874791;76;21128;-88
2022/06/01 05:30:30;;;;;;;13.15;7.03;;;32.80;99.90;;;;;;1848009;77;21134;-87
2022/06/01 05:33:01;;;;;;;11.80;6.85;;;32.90;99.90;;;;;;1834287;76;21183;-88
2022/06/01 05:35:31;;;;;;;18.37;6.50;;;33.10;99.90;;;;;;1855850;76;21199;-88
2022/06/01 05:38:02;;;;;;;14.28;7.17;;;33.10;99.90;;;;;;1855446;76;21134;-88
2022/06/01 05:40:34;;;;;;;12.05;6.87;;;32.90;99.90;;;;;;1827348;77;21189;-88
2022/06/01 05:43:07;;;;;;;14.43;7.50;;;33.10;99.90;;;;;;1849739;77;21671;-88
2022/06/01 05:45:39;;;;;;;15.35;6.22;;;33.20;99.90;;;;;;1846039;78;21077;-88
2022/06/01 05:48:12;;;;;;;16.12;6.90;;;33.10;99.90;;;;;;1846454;76;21147;-88
2022/06/01 05:50:44;;;;;;;14.75;7.08;;;33.00;99.90;;;;;;1845746;77;21073;-85
2022/06/01 05:53:16;;;;;;;13.48;6.35;;;32.90;99.90;;;;;;1869462;77;21206;-88
2022/06/01 05:55:48;;;;;;;13.38;6.45;;;33.00;99.70;;;;;;1867319;76;21283;-87
2022/06/01 05:58:25;;;;;;;12.10;6.22;;;33.00;99.70;;;;;;1830406;77;21210;-89
2022/06/01 06:00:56;;;;;;;19.32;6.78;;;33.00;99.80;;;;;;1858252;76;21638;-87
2022/06/01 06:03:28;;;;;;;11.55;6.45;;;33.10;99.60;;;;;;1855299;77;21169;-88
2022/06/01 06:08:37;;;;;;;14.68;7.10;;;33.20;99.90;;;;;;1856273;76;22351;-85
2022/06/01 06:11:09;;;;;;;11.45;5.97;;;33.20;99.90;;;;;;1844901;76;21070;-88
2022/06/01 06:13:41;;;;;;;17.60;7.58;;;33.20;99.90;;;;;;1820052;77;21294;-89
2022/06/01 06:16:13;;;;;;;14.33;6.75;;;33.20;99.90;;;;;;1820565;78;21068;-89
2022/06/01 06:18:45;;;;;;;16.82;7.10;;;33.10;99.90;;;;;;1821098;78;21202;-85
2022/06/01 06:21:23;;;;;;;13.95;6.50;;;33.40;99.80;;;;;;1845212;76;21103;-87
2022/06/01 06:24:04;;;;;;;14.10;7.33;;;33.10;99.80;;;;;;1852357;76;21146;-90
2022/06/01 06:26:36;;;;;;;12.30;6.40;;;33.30;99.10;;;;;;1850483;76;21103;-87
2022/06/01 06:29:10;;;;;;;13.13;6.17;;;33.30;99.60;;;;;;1844937;76;21177;-88
2022/06/01 06:31:41;;;;;;;15.60;6.83;;;33.40;99.60;;;;;;1852577;77;21154;-86
2022/06/01 06:34:14;;;;;;;15.50;7.58;;;33.40;99.60;;;;;;1844846;77;21095;-87
2022/06/01 06:36:46;;;;;;;17.73;7.00;;;33.10;99.30;;;;;;1868787;76;21234;-86
2022/06/01 06:39:17;;;;;;;16.20;6.95;;;33.20;99.10;;;;;;1858448;77;21123;-87
2022/06/01 06:41:48;;;;;;;12.47;6.78;;;33.20;99.20;;;;;;1851837;77;21117;-88
2022/06/01 06:44:21;;;;;;;17.67;7.58;;;33.50;99.40;;;;;;1841950;76;21137;-88
2022/06/01 06:46:52;;;;;;;15.23;6.62;;;33.60;99.50;;;;;;1821378;76;21165;-87
2022/06/01 06:49:23;;;;;;;11.15;6.45;;;33.30;99.30;;;;;;1855338;76;21111;-85
2022/06/01 06:51:54;;;;;;;14.20;6.95;;;33.50;99.30;;;;;;1816616;78;21253;-89
2022/06/01 06:54:27;;;;;;;10.75;6.42;;;33.40;99.90;;;;;;1821593;78;21119;-88
2022/06/01 06:56:58;;;;;;;15.72;6.58;;;33.40;99.90;;;;;;1807735;78;21260;-87
2022/06/01 06:59:29;;;;;;;15.35;6.95;;;33.40;99.90;;;;;;1821601;77;21094;-87
2022/06/01 07:02:00;;;;;;;12.90;7.10;;;33.50;99.90;;;;;;1822516;76;21204;-85
2022/06/01 07:04:31;;;;;;;16.85;6.90;;;33.50;99.90;;;;;;1823779;77;21111;-84
2022/06/01 07:07:06;;;;;;;15.32;6.95;;;33.30;99.90;;;;;;1794834;78;21236;-85
2022/06/01 07:09:38;;;;;;;17.20;7.47;;;33.20;99.90;;;;;;1797698;77;21091;-84
2022/06/01 07:12:10;;;;;;;16.17;6.85;;;33.20;99.90;;;;;;1799759;77;21164;-83
2022/06/01 07:14:41;;;;;;;14.55;6.67;;;33.30;99.80;;;;;;1832298;77;21151;-85
2022/06/01 07:17:12;;;;;;;14.30;7.37;;;33.50;99.80;;;;;;1805248;76;21731;-85
2022/06/01 07:19:43;;;;;;;14.47;7.55;;;33.40;99.70;;;;;;1807427;78;21227;-84
2022/06/01 07:22:15;;;;;;;14.93;7.30;;;33.10;99.80;;;;;;1813688;78;21170;-90
2022/06/01 07:24:46;;;;;;;11.93;7.37;;;33.20;99.90;;;;;;1813620;78;21169;-90
2022/06/01 07:27:17;;;;;;;13.48;7.72;;;33.40;99.90;;;;;;1862794;76;21145;-90
2022/06/01 07:29:48;;;;;;;18.12;8.28;;;33.50;99.90;;;;;;1824079;77;21130;-89
2022/06/01 07:32:19;;;;;;;13.05;7.60;;;33.20;99.90;;;;;;1859477;76;21134;-87
2022/06/01 07:34:53;;;;;;;15.63;7.08;;;33.40;99.10;;;;;;1812565;78;21182;-89
2022/06/01 07:45:00;;;;;;;13.88;7.40;;;33.60;98.50;;;;;;1827525;77;22000;-85
2022/06/01 07:47:32;;;;;;;15.50;6.47;;;33.60;98.50;;;;;;1827140;78;21107;-86
2022/06/01 07:50:04;;;;;;;13.85;6.30;;;33.50;98.30;;;;;;1830650;77;21170;-88
2022/06/01 07:52:36;;;;;;;12.60;6.80;;;33.50;98.70;;;;;;1820770;78;21241;-86
2022/06/01 07:55:09;;;;;;;14.43;6.42;;;33.30;98.80;;;;;;1820750;79;21141;-86
2022/06/01 07:57:40;;;;;;;12.45;6.78;;;33.40;98.40;;;;;;1838093;75;21135;-87
2022/06/01 08:00:11;;;;;;;10.18;6.80;;;33.30;98.90;;;;;;1864042;76;21174;-87
2022/06/01 08:02:42;;;;;;;14.03;6.85;;;33.20;99.10;;;;;;1857829;77;21122;-85
2022/06/01 08:05:15;;;;;;;13.43;5.75;;;33.30;99.50;;;;;;1865249;76;21149;-87
2022/06/01 08:07:47;;;;;;;15.98;6.33;;;33.30;98.30;;;;;;1855433;77;21179;-87
2022/06/01 08:10:20;;;;;;;12.23;6.47;;;33.60;98.30;;;;;;1862581;77;21636;-89
2022/06/01 08:13:06;;;;;;;18.73;7.00;;;33.70;98.40;;;;;;1865875;76;21161;-90
2022/06/01 08:15:30;;;;;;;12.35;6.20;;;33.60;98.10;;;;;;1855261;77;21553;-86
2022/06/01 08:18:01;;;;;;;14.90;6.78;;;33.40;98.40;;;;;;1851314;76;21109;-87
2022/06/01 08:20:33;;;;;;;14.60;7.12;;;33.30;98.60;;;;;;1859927;77;21104;-91
2022/06/01 08:23:08;;;;;;;12.05;7.10;;;33.50;99.00;;;;;;1860734;77;21222;-86
2022/06/01 08:25:40;;;;;;;13.85;6.80;;;33.30;98.90;;;;;;1847680;77;21165;-88
2022/06/01 08:28:11;;;;;;;12.95;6.50;;;33.50;98.60;;;;;;1843242;77;21400;-84
2022/06/01 08:30:43;;;;;;;14.05;7.20;;;33.30;98.30;;;;;;1873955;75;21225;-88
2022/06/01 08:33:14;;;;;;;16.15;7.25;;;33.30;98.60;;;;;;1855021;77;21121;-87
2022/06/01 08:35:47;;;;;;;9.38;6.55;;;33.30;98.90;;;;;;1853725;77;21257;-91
2022/06/01 08:38:18;;;;;;;18.75;7.25;;;33.40;98.80;;;;;;1848362;77;21208;-86
2022/06/01 08:40:52;;;;;;;13.80;6.97;;;33.40;98.70;;;;;;1869221;76;21299;-87
2022/06/01 08:43:25;;;;;;;15.55;7.47;;;33.30;98.50;;;;;;1863988;76;21174;-89
2022/06/01 08:45:59;;;;;;;13.62;7.20;;;33.40;98.50;;;;;;1858797;76;21147;-88
2022/06/01 08:48:34;;;;;;;15.60;6.72;;;33.30;98.90;;;;;;1868119;75;21155;-91
2022/06/01 08:51:06;;;;;;;9.88;6.37;;;33.50;98.60;;;;;;1859884;76;21131;-89
2022/06/01 08:53:38;;;;;;;16.10;6.87;;;33.50;98.40;;;;;;1858293;75;21256;-88
2022/06/01 08:56:13;;;;;;;15.83;6.85;;;33.30;98.30;;;;;;1849088;76;21153;-88
2022/06/01 08:58:47;;;;;;;11.55;6.20;;;33.30;98.30;;;;;;1852710;75;21208;-90
2022/06/01 09:01:20;;;;;;;11.43;6.15;;;33.10;97.50;;;;;;1866510;75;21207;-89
2022/06/01 09:04:00;;;;;;;11.15;5.55;;;33.30;97.60;;;;;;1868981;76;21113;-87
2022/06/01 09:06:30;;;;;;;11.70;6.00;;;33.00;97.60;;;;;;1869157;76;21074;-91
2022/06/01 09:09:04;;;;;;;16.80;7.03;;;33.00;98.00;;;;;;1850216;76;21593;-90
2022/06/01 09:11:38;;;;;;;10.08;6.15;;;33.20;98.20;;;;;;1857427;77;21094;-88
2022/06/01 09:14:11;;;;;;;12.75;6.72;;;33.00;98.10;;;;;;1867678;77;21087;-88
2022/06/01 09:16:45;;;;;;;17.23;7.10;;;32.90;97.80;;;;;;1880891;75;21169;-89
2022/06/01 09:19:22;;;;;;;14.63;6.35;;;33.10;97.80;;;;;;1890952;74;21135;-89
2022/06/01 09:24:30;;;;;;;11.83;6.08;;;32.90;97.70;;;;;;1878464;76;21174;-88
2022/06/01 09:27:04;;;;;;;13.53;6.17;;;32.90;97.90;;;;;;1911716;75;21144;-89
2022/06/01 09:29:39;;;;;;;16.27;6.78;;;33.20;97.80;;;;;;1891415;75;21727;-88
2022/06/01 09:32:13;;;;;;;15.30;6.75;;;33.00;98.00;;;;;;1880208;76;21232;-87
2022/06/01 09:34:46;;;;;;;12.58;6.65;;;33.00;98.20;;;;;;1877538;76;21080;-89
2022/06/01 09:37:20;;;;;;;10.72;6.60;;;32.80;98.20;;;;;;1886290;76;21087;-86
2022/06/01 09:39:53;;;;;;;11.05;6.05;;;32.80;97.80;;;;;;1851558;76;21107;-89
2022/06/01 09:42:30;;;;;;;11.48;6.15;;;32.90;97.50;;;;;;1846709;77;21146;-88
2022/06/01 09:45:05;;;;;;;14.13;5.47;;;32.80;97.30;;;;;;1853178;76;21144;-86
2022/06/01 09:47:40;;;;;;;12.53;6.15;;;32.80;97.50;;;;;;1856331;76;21098;-86
2022/06/01 09:50:14;;;;;;;10.40;5.83;;;32.80;97.90;;;;;;1876690;74;21931;-87
2022/06/01 09:52:45;;;;;;;14.23;6.40;;;32.70;98.20;;;;;;1862692;76;21179;-87
2022/06/01 09:55:19;;;;;;;11.38;5.90;;;33.00;98.20;;;;;;1875629;76;21147;-88
2022/06/01 09:57:52;;;;;;;15.05;6.72;;;32.70;98.40;;;;;;1861763;76;21080;-86
2022/06/01 10:08:08;;;;;;;15.60;6.92;;;32.90;98.30;;;;;;1877722;76;21134;-87
2022/06/01 10:10:48;;;;;;;11.43;7.10;;;32.50;98.00;;;;;;1856058;76;21138;-80
2022/06/01 10:13:22;;;;;;;12.10;6.55;;;32.80;98.00;;;;;;1864463;76;21184;-83
2022/06/01 10:16:01;;;;;;;13.75;6.28;;;32.50;98.00;;;;;;1897874;75;21173;-86
2022/06/01 10:18:39;;;;;;;11.78;6.85;;;32.50;97.80;;;;;;1864216;76;21593;-85
2022/06/01 10:21:12;;;;;;;14.33;7.17;;;32.80;98.70;;;;;;1838724;76;21144;-84
2022/06/01 10:23:49;;;;;;;15.98;6.75;;;32.80;98.10;;;;;;1867111;76;21163;-80
2022/06/01 10:26:22;;;;;;;14.13;6.90;;;32.50;98.10;;;;;;1888664;75;21143;-81
2022/06/01 10:28:55;;;;;;;14.28;7.33;;;32.80;98.30;;;;;;1879563;75;21239;-79
2022/06/01 10:31:33;;;;;;;9.68;6.42;;;32.80;98.30;;;;;;1900319;74;21602;-87
2022/06/01 10:34:07;;;;;;;13.95;6.58;;;32.40;98.00;;;;;;1865132;75;21689;-88
2022/06/01 10:36:40;;;;;;;12.68;6.42;;;32.70;98.30;;;;;;1889706;74;21208;-87
2022/06/01 10:39:21;;;;;;;11.95;6.10;;;32.60;98.50;;;;;;1893773;74;21564;-88
2022/06/01 10:42:19;;;;;;;12.43;6.53;;;32.40;98.10;;;;;;1891072;75;21164;-85
2022/06/01 10:44:58;;;;;;;13.62;6.75;;;32.30;98.10;;;;;;1872161;75;21180;-88
2022/06/01 10:47:34;;;;;;;17.27;6.90;;;32.30;98.20;;;;;;1877166;75;21139;-85
2022/06/01 10:50:08;;;;;;;13.40;6.53;;;32.40;98.40;;;;;;1872918;75;21156;-86
2022/06/01 10:52:42;;;;;;;11.55;6.05;;;32.60;98.60;;;;;;1878403;75;21508;-88
2022/06/01 10:55:18;;;;;;;11.88;6.70;;;32.40;98.50;;;;;;1887129;75;21432;-87
2022/06/01 10:57:50;;;;;;;10.95;6.25;;;32.40;98.40;;;;;;1891483;74;21194;-90
2022/06/01 11:00:24;;;;;;;11.68;6.55;;;32.30;98.90;;;;;;1862355;76;21125;-89
2022/06/01 11:02:57;;;;;;;10.55;6.85;;;32.20;98.30;;;;;;1871725;76;21177;-88
2022/06/01 11:05:41;;;;;;;12.20;6.10;;;32.20;98.30;;;;;;1845498;76;21139;-87
2022/06/01 11:08:14;;;;;;;14.30;6.47;;;32.20;98.30;;;;;;1880620;75;21127;-87
2022/06/01 11:10:54;;;;;;;11.90;6.12;;;32.20;98.30;;;;;;1882216;75;21131;-87
2022/06/01 11:13:27;;;;;;;11.25;6.47;;;32.40;98.30;;;;;;1879334;75;21185;-86
2022/06/01 11:16:01;;;;;;;16.12;6.30;;;32.30;98.10;;;;;;1877650;75;21179;-87
2022/06/01 11:18:34;;;;;;;14.65;7.17;;;32.30;98.10;;;;;;1876280;76;21052;-87
2022/06/01 11:21:08;;;;;;;14.03;6.95;;;32.50;98.30;;;;;;1878987;75;21162;-86
2022/06/01 11:23:44;;;;;;;12.47;6.37;;;32.20;98.10;;;;;;1879607;75;21146;-86
2022/06/01 11:26:17;;;;;;;12.53;6.58;;;32.30;98.00;;;;;;1881543;76;21184;-87
2022/06/01 11:28:57;;;;;;;15.48;7.03;;;32.30;98.00;;;;;;1853294;76;21608;-88
2022/06/01 11:31:30;;;;;;;10.55;7.03;;;32.20;98.00;;;;;;1866647;77;21159;-88
2022/06/01 11:34:04;;;;;;;12.43;7.65;;;32.30;98.30;;;;;;1856453;75;21164;-86
2022/06/01 11:36:37;;;;;;;15.18;7.30;;;32.20;98.40;;;;;;1873086;75;21078;-88
2022/06/01 11:39:10;;;;;;;16.05;8.30;;;32.20;98.50;;;;;;1872166;75;21221;-88
2022/06/01 11:41:44;;;;;;;16.70;8.08;;;32.30;98.70;;;;;;1900316;75;21155;-88
2022/06/01 11:44:17;;;;;;;14.90;9.03;;;32.20;98.80;;;;;;1886801;75;21219;-88
2022/06/01 11:46:50;;;;;;;18.92;9.70;;;32.30;98.90;;;;;;1845931;77;21201;-89
2022/06/01 11:49:24;;;;;;;15.70;10.43;;;32.10;99.10;;;;;;1912790;75;21141;-89
2022/06/01 11:51:56;;;;;;;18.75;10.10;;;32.10;99.30;;;;;;1871453;76;21650;-89
2022/06/01 11:54:33;;;;;;;14.40;10.13;;;32.20;99.50;;;;;;1871222;76;21095;-89
2022/06/01 11:57:06;;;;;;;17.85;10.20;;;32.10;99.50;;;;;;1877338;75;21161;-89
2022/06/01 11:59:39;;;;;;;16.62;9.50;;;31.90;99.50;;;;;;1857080;77;21143;-89
2022/06/01 12:02:14;;;;;;;13.90;9.83;;;32.00;99.60;;;;;;1840963;76;21583;-90
2022/06/01 12:04:48;;;;;;;16.15;9.38;;;32.20;99.80;;;;;;1842787;77;21198;-89
2022/06/01 12:07:21;;;;;;;13.85;8.18;;;32.10;99.90;;;;;;1887668;75;21142;-89
2022/06/01 12:09:54;;;;;;;16.93;9.15;;;32.10;99.90;;;;;;1885194;75;21184;-86
2022/06/01 12:12:28;;;;;;;13.65;9.33;;;32.00;99.90;;;;;;1856034;76;21614;-91
2022/06/01 12:15:01;;;;;;;16.67;9.45;;;31.70;99.90;;;;;;1837984;77;21141;-89
2022/06/01 12:17:35;;;;;;;17.65;10.30;;;31.40;99.90;;;;;;1836022;76;21112;-89
2022/06/01 12:20:10;;;;;;;16.45;9.83;;;31.70;99.90;;;;;;1881926;75;21154;-88
2022/06/01 12:30:27;;;;;;;15.80;9.10;;;31.20;99.90;;;;;;1843345;76;21162;-89
2022/06/01 12:33:00;;;;;;;12.37;9.10;;;31.30;99.90;;;;;;1889370;75;21279;-88
2022/06/01 12:35:35;;;;;;;13.25;9.00;;;31.00;99.90;;;;;;1840289;77;21138;-89
2022/06/01 12:38:08;;;;;;;20.77;9.45;;;31.00;99.90;;;;;;1895257;75;21111;-87
2022/06/01 12:40:40;;;;;;;15.68;9.40;;;31.20;99.90;;;;;;1847862;77;21191;-88
2022/06/01 12:43:14;;;;;;;16.67;8.88;;;30.80;99.90;;;;;;1859029;77;21194;-88
2022/06/01 12:45:45;;;;;;;16.23;8.80;;;31.00;99.90;;;;;;1856141;76;21144;-90
2022/06/01 12:48:22;;;;;;;17.35;8.83;;;31.00;99.90;;;;;;1854115;76;21154;-88
2022/06/01 12:50:53;;;;;;;15.58;8.65;;;30.80;99.90;;;;;;1877269;75;21161;-89
2022/06/01 12:53:29;;;;;;;15.40;9.33;;;31.00;99.90;;;;;;1897294;75;21084;-88
2022/06/01 12:56:02;;;;;;;14.15;9.05;;;30.80;99.90;;;;;;1894454;74;21213;-90
2022/06/01 12:58:35;;;;;;;14.33;9.30;;;30.80;99.90;;;;;;1828595;77;21107;-89
2022/06/01 13:01:06;;;;;;;16.37;9.85;;;31.00;99.90;;;;;;1883160;76;21123;-89
2022/06/01 13:03:40;;;;;;;14.85;9.63;;;30.70;99.90;;;;;;1880529;76;21166;-89
2022/06/01 13:06:20;;;;;;;19.37;9.45;;;30.70;99.90;;;;;;1849502;77;21131;-86
2022/06/01 13:08:53;;;;;;;17.57;10.20;;;30.60;99.90;;;;;;1862990;76;21115;-88
2022/06/01 13:11:26;;;;;;;17.70;9.53;;;30.70;99.90;;;;;;1873724;76;21158;-85
2022/06/01 13:14:03;;;;;;;15.93;9.48;;;30.60;99.90;;;;;;1876106;74;21696;-90
2022/06/01 13:16:38;;;;;;;18.00;9.95;;;30.60;99.90;;;;;;1875674;76;21114;-87
2022/06/01 13:19:11;;;;;;;13.35;9.00;;;30.60;99.90;;;;;;1866935;76;21158;-90
2022/06/01 13:21:45;;;;;;;16.05;10.05;;;30.80;99.90;;;;;;1865714;76;21106;-89
2022/06/01 13:24:16;;;;;;;17.95;10.82;;;30.50;99.90;;;;;;1860501;76;21150;-90
2022/06/01 13:26:50;;;;;;;17.62;9.85;;;30.50;99.90;;;;;;1862130;76;21145;-91
2022/06/01 13:29:26;;;;;;;16.23;10.43;;;30.70;99.90;;;;;;1854509;76;21122;-88
2022/06/01 13:32:00;;;;;;;21.52;11.55;;;30.50;99.90;;;;;;1878710;76;21090;-89
2022/06/01 13:34:34;;;;;;;16.67;10.38;;;30.50;99.90;;;;;;1874314;76;21193;-89
2022/06/01 13:37:09;;;;;;;13.30;9.45;;;30.50;99.90;;;;;;1864508;76;21227;-86
2022/06/01 13:39:43;;;;;;;22.62;9.93;;;30.60;99.90;;;;;;1860312;75;21295;-89